Time;durP1;ratioP1;P1;durP2;ratioP2;P2;SDS_P1;SDS_P2;PMS_P1;PMS_P2;Temp;Humidity;BMP_temperature;BMP_pressure;BME280_temperature;BME280_humidity;BME280_pressure;Samples;Min_cycle;Max_cycle;Signal;HPM_P1;HPM_P2
2023/03/08 00:00:55;;;;;;;13.60;1.20;;;0.60;99.90;;;;;;4842062;29;20108;-58
2023/03/08 00:03:21;;;;;;;5.45;1.10;;;0.80;99.90;;;;;;4858266;29;20086;-60
2023/03/08 00:05:47;;;;;;;4.90;1.33;;;0.40;99.90;;;;;;4858494;29;20026;-60
2023/03/08 00:08:13;;;;;;;2.65;1.20;;;;;;;;;;4859333;29;20053;-58
2023/03/08 00:10:38;;;;;;;6.93;1.80;;;0.40;99.90;;;;;;4859200;29;20113;-58
2023/03/08 00:13:04;;;;;;;6.53;1.38;;;0.40;99.90;;;;;;4861767;29;20044;-60
2023/03/08 00:15:29;;;;;;;4.28;1.40;;;0.40;99.90;;;;;;4862459;29;20029;-59
2023/03/08 00:17:55;;;;;;;7.57;1.60;;;0.40;99.90;;;;;;4865665;29;20032;-59
2023/03/08 00:20:21;;;;;;;11.82;2.10;;;;;;;;;;4863795;29;20025;-59
2023/03/08 00:22:47;;;;;;;16.25;2.53;;;0.30;99.90;;;;;;4880645;29;20467;-57
2023/03/08 00:25:15;;;;;;;4.63;1.65;;;0.20;99.90;;;;;;4880459;29;20025;-56
2023/03/08 00:27:41;;;;;;;7.82;1.85;;;0.30;99.90;;;;;;4878226;29;20037;-59
2023/03/08 00:30:07;;;;;;;7.75;2.45;;;0.20;99.90;;;;;;4861796;29;20597;-59
2023/03/08 00:32:33;;;;;;;3.75;1.95;;;0.30;99.90;;;;;;4861764;29;20033;-59
2023/03/08 00:34:58;;;;;;;10.10;2.20;;;0.30;99.90;;;;;;4862334;29;20029;-58
2023/03/08 00:37:24;;;;;;;9.60;2.03;;;;;;;;;;4862707;29;20033;-59
2023/03/08 00:39:53;;;;;;;4.85;2.00;;;0.20;99.90;;;;;;4862681;29;20030;-54
2023/03/08 00:42:22;;;;;;;4.00;1.55;;;0.10;99.90;;;;;;4863427;29;20591;-57
2023/03/08 00:44:48;;;;;;;7.35;2.13;;;-0.10;99.90;;;;;;4862899;29;20098;-58
2023/03/08 00:47:14;;;;;;;8.65;1.92;;;0.10;99.90;;;;;;4862627;29;20484;-61
2023/03/08 00:49:40;;;;;;;7.82;1.67;;;0.10;99.90;;;;;;4878311;29;20037;-59
2023/03/08 00:52:06;;;;;;;9.30;1.88;;;0.60;99.90;;;;;;4880109;29;20057;-57
2023/03/08 00:54:32;;;;;;;8.93;2.10;;;0.00;99.90;;;;;;4880017;29;20040;-60
2023/03/08 00:56:58;;;;;;;5.00;2.05;;;;;;;;;;4863619;29;20402;-58
2023/03/08 00:59:24;;;;;;;16.63;2.58;;;0.10;99.90;;;;;;4865697;29;20090;-61
2023/03/08 01:01:50;;;;;;;10.48;2.13;;;0.00;99.90;;;;;;4862337;29;20029;-61
2023/03/08 01:04:16;;;;;;;13.15;2.53;;;;;;;;;;4861396;29;20081;-60
2023/03/08 01:06:42;;;;;;;9.30;2.45;;;;;;;;;;4859777;29;20052;-58
2023/03/08 01:09:08;;;;;;;9.13;2.47;;;0.10;99.90;;;;;;4862148;29;20056;-61
2023/03/08 01:11:36;;;;;;;6.43;3.42;;;;;;;;;;4861111;29;20037;-58
2023/03/08 01:14:02;;;;;;;16.42;3.08;;;0.00;99.90;;;;;;4861203;29;20029;-61
2023/03/08 01:16:31;;;;;;;14.77;3.88;;;0.00;99.90;;;;;;4860851;29;20038;-61
2023/03/08 01:18:57;;;;;;;8.25;3.55;;;-0.10;99.90;;;;;;4861694;29;20404;-58
2023/03/08 01:21:24;;;;;;;13.35;3.60;;;-0.10;99.90;;;;;;4861008;29;20089;-59
2023/03/08 01:23:50;;;;;;;8.65;3.30;;;;;;;;;;4859655;29;20108;-59
2023/03/08 01:26:22;;;;;;;11.23;3.70;;;-0.10;99.90;;;;;;4860931;29;20060;-59
2023/03/08 01:28:48;;;;;;;7.45;4.00;;;0.00;99.90;;;;;;4869803;29;20040;-58
2023/03/08 01:31:15;;;;;;;13.13;4.50;;;-0.10;99.90;;;;;;4878549;29;20037;-61
2023/03/08 01:33:42;;;;;;;7.10;4.10;;;-0.10;99.90;;;;;;4879086;29;20036;-62
2023/03/08 01:36:11;;;;;;;24.10;5.57;;;-0.10;99.90;;;;;;4878664;29;20024;-60
2023/03/08 01:38:37;;;;;;;19.65;5.30;;;-0.50;99.90;;;;;;4871146;29;20101;-57
2023/03/08 01:41:04;;;;;;;10.40;5.53;;;-0.10;99.90;;;;;;4860489;29;20062;-59
2023/03/08 01:43:36;;;;;;;10.55;5.47;;;-0.10;99.90;;;;;;4860275;29;20030;-59
2023/03/08 01:46:04;;;;;;;5.70;5.03;;;-0.60;99.90;;;;;;4860643;29;20500;-58
2023/03/08 01:48:56;;;;;;;15.35;6.53;;;0.00;99.90;;;;;;4863458;29;20112;-60
2023/03/08 01:51:52;;;;;;;18.60;5.55;;;-0.10;99.90;;;;;;4875079;29;20065;-57
2023/03/08 01:54:18;;;;;;;11.25;6.28;;;;;;;;;;4875523;29;20037;-60
2023/03/08 01:56:46;;;;;;;10.93;6.15;;;-0.30;99.90;;;;;;4878519;29;20101;-59
2023/03/08 01:59:13;;;;;;;8.90;6.72;;;-0.20;99.90;;;;;;4866336;29;20089;-60
2023/03/08 02:01:39;;;;;;;16.27;6.75;;;-0.20;99.90;;;;;;4860079;29;20488;-59
2023/03/08 02:04:06;;;;;;;23.20;7.30;;;-0.30;99.90;;;;;;4859778;29;20037;-60
2023/03/08 02:06:32;;;;;;;13.23;7.80;;;-0.30;99.90;;;;;;4843650;29;20385;-60
2023/03/08 02:09:02;;;;;;;13.77;7.35;;;-0.20;99.90;;;;;;4869600;29;20037;-59
2023/03/08 02:11:28;;;;;;;21.60;8.35;;;-0.50;99.90;;;;;;4878010;29;20036;-59
2023/03/08 02:13:54;;;;;;;21.27;9.10;;;-0.20;99.90;;;;;;4878052;29;20028;-58
2023/03/08 02:16:21;;;;;;;24.25;8.30;;;-0.20;99.90;;;;;;4878386;29;20080;-58
2023/03/08 02:18:57;;;;;;;12.32;6.90;;;0.20;99.90;;;;;;4859937;29;20036;-61
2023/03/08 02:21:24;;;;;;;13.85;8.98;;;-0.20;99.90;;;;;;4878081;29;20080;-61
2023/03/08 02:23:50;;;;;;;15.85;8.82;;;-0.20;99.90;;;;;;4877883;29;20041;-59
2023/03/08 02:26:16;;;;;;;12.52;8.63;;;-0.80;99.90;;;;;;4878221;29;20081;-59
2023/03/08 02:28:42;;;;;;;23.67;9.23;;;-0.20;99.90;;;;;;4876419;29;20040;-59
2023/03/08 02:31:08;;;;;;;18.23;8.40;;;-0.30;99.90;;;;;;4878127;29;20025;-60
2023/03/08 02:33:34;;;;;;;20.92;9.15;;;;;;;;;;4877693;29;20065;-61
2023/03/08 02:36:02;;;;;;;13.82;8.95;;;-0.30;99.90;;;;;;4877976;29;20029;-59
2023/03/08 02:38:28;;;;;;;15.85;9.75;;;;;;;;;;4871506;29;20340;-61
2023/03/08 02:40:55;;;;;;;19.50;10.13;;;-0.30;99.90;;;;;;4860425;29;20033;-60
2023/03/08 02:43:21;;;;;;;22.95;10.73;;;-0.30;99.90;;;;;;4859274;29;20040;-56
2023/03/08 02:45:47;;;;;;;20.92;9.98;;;-0.30;99.90;;;;;;4859417;29;20086;-55
2023/03/08 02:48:14;;;;;;;29.38;11.02;;;-0.40;99.90;;;;;;4862494;29;20060;-58
2023/03/08 02:50:40;;;;;;;20.55;11.52;;;-0.80;99.90;;;;;;4877783;29;20112;-57
2023/03/08 02:53:06;;;;;;;23.58;10.10;;;-0.40;99.90;;;;;;4877355;29;20085;-60
2023/03/08 02:55:34;;;;;;;22.25;10.65;;;;;;;;;;4877565;29;20112;-57
2023/03/08 02:58:00;;;;;;;27.40;10.93;;;;;;;;;;4875510;29;20044;-63
2023/03/08 03:00:26;;;;;;;32.08;12.18;;;;;;;;;;4859329;29;20026;-59
2023/03/08 03:02:52;;;;;;;29.08;11.02;;;;;;;;;;4858822;29;20040;-61
2023/03/08 03:05:18;;;;;;;30.67;12.00;;;-0.50;99.90;;;;;;4858779;29;20040;-57
2023/03/08 03:07:44;;;;;;;27.40;11.60;;;-0.30;99.90;;;;;;4881584;23;20123;-63
2023/03/08 03:10:10;;;;;;;23.67;11.20;;;-0.40;99.90;;;;;;4895482;29;20140;-63
2023/03/08 03:12:36;;;;;;;25.38;10.88;;;-0.40;99.90;;;;;;4895829;29;20028;-61
2023/03/08 03:15:04;;;;;;;23.50;12.35;;;-0.30;99.90;;;;;;4895646;29;20417;-62
2023/03/08 03:17:30;;;;;;;26.38;11.65;;;-0.60;99.90;;;;;;4895530;29;20032;-63
2023/03/08 03:19:56;;;;;;;24.13;12.02;;;-0.40;99.90;;;;;;4879374;29;20029;-62
2023/03/08 03:22:22;;;;;;;24.50;12.43;;;-0.40;99.90;;;;;;4876249;29;20352;-64
2023/03/08 03:24:50;;;;;;;28.85;12.05;;;-0.30;99.90;;;;;;4876352;29;20040;-63
2023/03/08 03:27:17;;;;;;;21.00;11.35;;;-0.40;99.90;;;;;;4877272;29;20116;-64
2023/03/08 03:29:43;;;;;;;18.92;11.80;;;-0.30;99.90;;;;;;4891110;29;20040;-62
2023/03/08 03:32:09;;;;;;;30.05;13.60;;;-0.20;99.90;;;;;;4895838;29;20518;-60
2023/03/08 03:34:34;;;;;;;29.13;11.70;;;-0.20;99.90;;;;;;4895684;29;20542;-63
2023/03/08 03:37:00;;;;;;;19.70;11.65;;;-0.30;99.90;;;;;;4895413;29;20044;-63
2023/03/08 03:39:26;;;;;;;19.73;11.48;;;0.40;99.90;;;;;;4883465;29;20029;-63
2023/03/08 03:41:51;;;;;;;27.30;11.20;;;-0.30;99.90;;;;;;4876905;29;20033;-61
2023/03/08 03:44:17;;;;;;;26.27;11.05;;;-0.30;99.90;;;;;;4876615;29;20552;-62
2023/03/08 03:46:43;;;;;;;21.80;12.50;;;-0.20;99.90;;;;;;4879237;29;20028;-62
2023/03/08 03:49:08;;;;;;;21.48;11.48;;;-0.30;99.90;;;;;;4880144;29;20543;-63
2023/03/08 03:51:34;;;;;;;17.73;10.63;;;-0.30;99.90;;;;;;4863618;29;20037;-61
2023/03/08 03:53:59;;;;;;;27.60;11.27;;;-0.60;99.90;;;;;;4880035;29;20404;-61
2023/03/08 03:56:26;;;;;;;30.00;11.07;;;-0.10;99.90;;;;;;4880312;29;20039;-62
2023/03/08 03:58:52;;;;;;;24.80;10.68;;;-0.30;99.90;;;;;;4887385;29;20056;-63
2023/03/08 04:01:23;;;;;;;25.00;12.70;;;;;;;;;;4899130;29;20028;-61
2023/03/08 04:03:49;;;;;;;14.65;9.82;;;-0.30;99.90;;;;;;4881912;29;20503;-61
2023/03/08 04:06:24;;;;;;;24.15;11.95;;;0.40;99.90;;;;;;4899026;29;20025;-63
2023/03/08 04:08:55;;;;;;;19.88;9.05;;;-0.70;99.90;;;;;;4891741;29;20041;-62
2023/03/08 04:11:23;;;;;;;20.70;10.30;;;-0.10;99.90;;;;;;4881830;29;20029;-63
2023/03/08 04:13:49;;;;;;;23.33;10.35;;;0.00;99.90;;;;;;4880025;29;20032;-64
2023/03/08 04:16:35;;;;;;;24.40;11.05;;;0.00;99.90;;;;;;4880083;29;20017;-64
2023/03/08 04:19:05;;;;;;;14.75;10.00;;;-0.10;99.90;;;;;;4887810;29;20096;-63
2023/03/08 04:21:31;;;;;;;14.98;9.50;;;-0.20;99.90;;;;;;4898362;29;20053;-62
2023/03/08 04:23:57;;;;;;;16.45;9.70;;;-0.50;99.90;;;;;;4898627;29;20053;-63
2023/03/08 04:26:24;;;;;;;23.10;10.63;;;-0.50;99.90;;;;;;4898625;29;20043;-63
2023/03/08 04:28:49;;;;;;;25.20;11.73;;;0.10;99.90;;;;;;4892119;29;20520;-61
2023/03/08 04:31:19;;;;;;;19.48;11.55;;;-0.40;99.90;;;;;;4880013;29;20041;-64
2023/03/08 04:33:46;;;;;;;19.58;11.05;;;0.10;99.90;;;;;;4879479;29;20047;-64
2023/03/08 04:36:11;;;;;;;22.85;11.27;;;-0.30;99.90;;;;;;4879805;29;20085;-62
2023/03/08 04:38:38;;;;;;;18.23;12.60;;;-0.20;99.90;;;;;;4883613;29;20029;-63
2023/03/08 04:41:06;;;;;;;19.45;9.38;;;-0.20;99.90;;;;;;4898325;29;20032;-64
2023/03/08 04:43:33;;;;;;;19.40;10.30;;;-0.30;99.90;;;;;;4897910;29;20395;-64
2023/03/08 04:45:59;;;;;;;16.92;10.23;;;-0.40;99.90;;;;;;4898263;29;20024;-64
2023/03/08 04:48:25;;;;;;;19.05;11.40;;;-0.50;99.90;;;;;;4896609;29;20128;-64
2023/03/08 04:50:55;;;;;;;16.63;10.15;;;-0.60;99.90;;;;;;4898010;29;20108;-64
2023/03/08 04:53:21;;;;;;;26.05;10.80;;;0.30;99.90;;;;;;4897504;29;20029;-64
2023/03/08 04:55:47;;;;;;;18.27;11.02;;;-0.80;99.90;;;;;;4881111;29;20065;-61
2023/03/08 04:58:12;;;;;;;17.83;10.27;;;-0.50;99.90;;;;;;4897030;29;20032;-64
2023/03/08 05:00:38;;;;;;;16.88;10.50;;;-0.50;99.90;;;;;;4897785;29;20112;-62
2023/03/08 05:03:05;;;;;;;18.20;10.30;;;-0.70;99.90;;;;;;4897706;29;20151;-64
2023/03/08 05:05:31;;;;;;;23.30;10.40;;;-0.70;99.90;;;;;;4897607;29;20029;-64
2023/03/08 05:07:58;;;;;;;22.55;10.45;;;-0.70;99.90;;;;;;4897564;29;20036;-64
2023/03/08 05:10:24;;;;;;;22.23;10.20;;;-0.20;99.90;;;;;;4863160;29;20565;-63
2023/03/08 05:12:50;;;;;;;32.00;11.30;;;-0.80;99.90;;;;;;4878920;29;20037;-63
2023/03/08 05:15:16;;;;;;;19.45;9.93;;;-0.60;99.90;;;;;;4878760;29;20155;-62
2023/03/08 05:17:41;;;;;;;17.63;11.25;;;-0.90;99.90;;;;;;4878725;29;20033;-63
2023/03/08 05:20:08;;;;;;;19.08;11.35;;;-0.70;99.90;;;;;;4893640;29;20028;-64
2023/03/08 05:22:33;;;;;;;17.35;9.95;;;-0.80;99.90;;;;;;4897701;29;20431;-62
2023/03/08 05:24:59;;;;;;;18.80;11.30;;;-0.80;99.90;;;;;;4897315;29;20028;-62
2023/03/08 05:27:25;;;;;;;22.40;11.55;;;-0.80;99.90;;;;;;4897204;29;20029;-64
2023/03/08 05:29:51;;;;;;;19.63;11.50;;;-1.10;99.90;;;;;;4884466;29;20037;-63
2023/03/08 05:32:16;;;;;;;21.27;11.48;;;-1.10;99.90;;;;;;4878708;29;20040;-64
2023/03/08 05:34:42;;;;;;;20.70;10.85;;;-0.70;99.90;;;;;;4878425;29;20392;-63
2023/03/08 05:37:08;;;;;;;19.20;10.15;;;-0.90;99.90;;;;;;4878249;29;20069;-63
2023/03/08 05:39:33;;;;;;;18.65;11.60;;;-0.20;99.90;;;;;;4889065;29;20155;-62
2023/03/08 05:41:59;;;;;;;24.98;10.25;;;-0.90;99.90;;;;;;4897191;29;20416;-63
2023/03/08 05:44:24;;;;;;;17.85;11.13;;;-0.90;99.90;;;;;;4896915;29;20028;-63
2023/03/08 05:46:51;;;;;;;15.63;11.60;;;-1.10;99.90;;;;;;4897252;29;20491;-57
2023/03/08 05:49:17;;;;;;;21.45;11.52;;;-1.70;99.90;;;;;;4888265;29;20399;-63
2023/03/08 05:51:43;;;;;;;22.73;11.88;;;-1.20;99.90;;;;;;4878291;29;20112;-61
2023/03/08 05:54:09;;;;;;;21.75;11.90;;;-1.20;99.90;;;;;;4878039;29;20037;-64
2023/03/08 05:56:34;;;;;;;21.17;12.32;;;-1.20;99.90;;;;;;4878310;29;20419;-63
2023/03/08 05:59:00;;;;;;;19.98;12.13;;;-1.00;99.90;;;;;;4883929;29;20402;-62
2023/03/08 06:01:27;;;;;;;27.58;12.20;;;-1.30;99.90;;;;;;4896639;29;20033;-62
2023/03/08 06:03:55;;;;;;;20.33;12.10;;;-1.00;99.90;;;;;;4896537;29;20021;-63
2023/03/08 06:06:22;;;;;;;26.15;11.85;;;-1.00;99.90;;;;;;4897011;29;20040;-64
2023/03/08 06:08:48;;;;;;;24.30;12.55;;;-1.00;99.90;;;;;;4892261;29;20077;-62
2023/03/08 06:11:14;;;;;;;33.13;12.05;;;-1.20;99.90;;;;;;4878620;29;20029;-62
2023/03/08 06:13:40;;;;;;;26.83;11.98;;;-1.10;99.90;;;;;;4877988;29;20448;-61
2023/03/08 06:16:06;;;;;;;23.30;11.82;;;-1.20;99.90;;;;;;4878413;29;20024;-62
2023/03/08 06:18:34;;;;;;;19.60;12.77;;;-1.10;99.90;;;;;;4879686;29;20052;-63
2023/03/08 06:21:10;;;;;;;21.50;12.60;;;-1.00;99.90;;;;;;4896354;29;20114;-63
2023/03/08 06:23:36;;;;;;;26.55;13.60;;;-0.90;99.90;;;;;;4896205;29;20029;-64
2023/03/08 06:26:03;;;;;;;21.20;11.73;;;-0.80;99.90;;;;;;4896234;29;20443;-64
2023/03/08 06:28:29;;;;;;;22.27;12.68;;;-0.70;99.90;;;;;;4894937;29;20412;-63
2023/03/08 06:30:55;;;;;;;24.02;11.98;;;-0.80;99.90;;;;;;4877451;29;20169;-61
2023/03/08 06:33:26;;;;;;;18.60;12.55;;;-1.20;99.90;;;;;;4877092;29;20049;-64
2023/03/08 06:35:57;;;;;;;22.95;11.73;;;-0.70;99.90;;;;;;4538241;29;9999963;-64
2023/03/08 06:38:22;;;;;;;26.85;12.02;;;-0.80;99.90;;;;;;4874366;29;20468;-64
2023/03/08 06:40:48;;;;;;;26.15;11.43;;;-0.80;99.90;;;;;;4892900;29;20035;-64
2023/03/08 06:43:14;;;;;;;19.63;12.15;;;;;;;;;;4892853;29;20390;-64
2023/03/08 06:45:40;;;;;;;22.17;12.02;;;-0.70;99.90;;;;;;4892891;29;20507;-65
2023/03/08 06:48:06;;;;;;;20.45;11.75;;;-0.70;99.90;;;;;;4892848;29;20130;-63
2023/03/08 06:50:32;;;;;;;19.70;11.93;;;-0.60;99.90;;;;;;4891392;29;20064;-63
2023/03/08 06:52:58;;;;;;;18.50;12.13;;;-0.50;99.90;;;;;;4892043;29;20043;-63
2023/03/08 06:55:23;;;;;;;16.60;11.48;;;-0.40;99.90;;;;;;4892492;29;20033;-62
2023/03/08 06:57:49;;;;;;;22.33;12.65;;;-0.70;99.90;;;;;;4892462;29;20032;-64
2023/03/08 07:00:15;;;;;;;35.53;15.30;;;0.00;99.90;;;;;;4889031;29;20428;-65
2023/03/08 07:02:41;;;;;;;68.20;28.00;;;-0.30;99.90;;;;;;4892909;29;20029;-64
2023/03/08 07:05:07;;;;;;;52.45;19.73;;;-0.40;99.90;;;;;;4892785;29;20650;-66
2023/03/08 07:07:35;;;;;;;38.30;18.15;;;-0.30;99.90;;;;;;4892104;29;20042;-64
2023/03/08 07:10:02;;;;;;;41.70;16.02;;;-0.20;99.90;;;;;;4892190;29;20119;-64
2023/03/08 07:12:31;;;;;;;23.80;11.70;;;-0.20;99.90;;;;;;4892316;29;20089;-64
2023/03/08 07:14:57;;;;;;;21.13;12.57;;;-0.10;99.90;;;;;;4892307;29;20029;-62
2023/03/08 07:17:23;;;;;;;23.77;13.65;;;0.10;99.90;;;;;;4892732;29;20029;-64
2023/03/08 07:19:49;;;;;;;33.28;14.00;;;0.00;99.90;;;;;;4892337;29;20052;-60
2023/03/08 07:22:14;;;;;;;20.85;13.52;;;0.10;99.90;;;;;;4896347;29;20032;-63
2023/03/08 07:24:40;;;;;;;13.98;11.05;;;0.10;99.90;;;;;;4896461;29;20036;-61
2023/03/08 07:27:06;;;;;;;18.85;11.45;;;0.20;99.90;;;;;;4896553;29;20040;-66
2023/03/08 07:29:31;;;;;;;17.38;11.15;;;0.20;99.90;;;;;;4888328;29;20037;-61
2023/03/08 07:31:57;;;;;;;11.05;9.85;;;0.30;99.90;;;;;;4878050;29;20037;-64
2023/03/08 07:34:23;;;;;;;16.85;9.82;;;0.20;99.90;;;;;;4882492;29;20487;-64
2023/03/08 07:36:49;;;;;;;21.00;10.68;;;0.20;99.90;;;;;;4550704;29;10000556;-63
2023/03/08 07:39:16;;;;;;;14.10;10.85;;;0.20;99.90;;;;;;4892510;29;20119;-62
2023/03/08 07:41:41;;;;;;;17.60;10.75;;;0.40;99.90;;;;;;4895253;29;20116;-63
2023/03/08 07:44:07;;;;;;;13.18;10.02;;;0.20;99.90;;;;;;4897706;29;20145;-62
2023/03/08 07:46:33;;;;;;;26.80;11.48;;;0.30;99.90;;;;;;4897796;29;20040;-62
2023/03/08 07:48:58;;;;;;;21.42;10.88;;;0.40;99.90;;;;;;4898925;29;20604;-61
2023/03/08 07:51:24;;;;;;;29.02;12.27;;;0.40;99.90;;;;;;4899045;29;20108;-63
2023/03/08 07:53:51;;;;;;;20.25;12.00;;;1.40;99.90;;;;;;4882267;29;20095;-57
2023/03/08 07:56:17;;;;;;;19.00;11.27;;;0.90;99.90;;;;;;4899102;29;20043;-64
2023/03/08 07:58:43;;;;;;;16.85;11.07;;;0.50;99.90;;;;;;4897660;29;20025;-61
2023/03/08 08:01:12;;;;;;;15.00;11.05;;;0.50;99.90;;;;;;4880003;29;20025;-61
2023/03/08 08:03:38;;;;;;;17.52;10.95;;;0.80;99.90;;;;;;4879961;29;20051;-64
2023/03/08 08:06:05;;;;;;;19.85;11.07;;;0.80;99.90;;;;;;4885166;29;20459;-64
2023/03/08 08:08:32;;;;;;;18.35;10.35;;;1.00;99.90;;;;;;4898749;29;20032;-59
2023/03/08 08:10:57;;;;;;;14.55;10.95;;;1.20;99.90;;;;;;4898297;29;20519;-63
2023/03/08 08:13:23;;;;;;;20.38;10.23;;;1.30;99.90;;;;;;4898998;29;20032;-62
2023/03/08 08:16:01;;;;;;;12.65;10.25;;;1.20;99.90;;;;;;4899021;29;20483;-63
2023/03/08 08:18:27;;;;;;;16.25;9.68;;;1.20;99.90;;;;;;4899565;29;20033;-63
2023/03/08 08:21:04;;;;;;;13.45;9.88;;;1.50;99.90;;;;;;4901092;29;20495;-62
2023/03/08 08:23:31;;;;;;;14.05;9.40;;;1.40;99.90;;;;;;4901272;29;20399;-63
2023/03/08 08:25:56;;;;;;;12.88;9.93;;;1.70;99.90;;;;;;4899634;29;20031;-61
2023/03/08 08:28:24;;;;;;;11.98;9.23;;;1.60;99.90;;;;;;4899941;29;20303;-61
2023/03/08 08:31:02;;;;;;;13.20;8.98;;;1.60;99.90;;;;;;4898325;29;20033;-63
2023/03/08 08:33:28;;;;;;;11.55;9.15;;;1.50;99.90;;;;;;4884061;29;20490;-63
2023/03/08 08:35:55;;;;;;;19.90;9.23;;;1.80;99.90;;;;;;4879773;29;20037;-64
2023/03/08 08:38:21;;;;;;;16.30;8.85;;;1.70;99.90;;;;;;4879311;29;20036;-59
2023/03/08 08:40:47;;;;;;;10.90;9.77;;;1.60;99.90;;;;;;4895949;29;20485;-64
2023/03/08 08:43:12;;;;;;;12.40;8.85;;;1.90;99.90;;;;;;4898083;29;20373;-61
2023/03/08 08:45:46;;;;;;;13.18;8.07;;;1.70;99.90;;;;;;4898036;29;20021;-65
2023/03/08 08:48:12;;;;;;;12.20;9.07;;;2.30;99.90;;;;;;4897902;29;20135;-65
2023/03/08 08:50:39;;;;;;;11.45;9.45;;;1.60;99.90;;;;;;4897511;29;20057;-65
2023/03/08 08:53:05;;;;;;;8.95;8.15;;;1.60;99.90;;;;;;4897853;29;20499;-64
2023/03/08 08:55:31;;;;;;;10.48;8.05;;;1.80;99.90;;;;;;4898083;29;20452;-64
2023/03/08 08:57:57;;;;;;;9.93;8.40;;;1.90;99.90;;;;;;4896438;29;20084;-64
2023/03/08 09:00:22;;;;;;;10.85;7.70;;;1.90;99.90;;;;;;4894687;29;20031;-64
2023/03/08 09:02:48;;;;;;;8.85;7.47;;;2.20;99.90;;;;;;4897674;29;20029;-65
2023/03/08 09:05:14;;;;;;;7.55;6.75;;;2.10;99.90;;;;;;4897751;29;20047;-64
2023/03/08 09:10:11;;;;;;;15.38;7.65;;;;;;;;;;4896166;29;20077;-65
2023/03/08 09:12:37;;;;;;;9.00;6.60;;;2.10;99.90;;;;;;4898152;29;20092;-63
2023/03/08 09:15:05;;;;;;;15.75;7.95;;;2.30;99.90;;;;;;4898430;29;20024;-64
2023/03/08 09:17:32;;;;;;;12.30;6.65;;;2.30;99.90;;;;;;4898251;29;20510;-64
2023/03/08 09:19:58;;;;;;;7.32;6.63;;;2.40;99.90;;;;;;4889788;29;20036;-64
2023/03/08 09:22:25;;;;;;;9.85;6.22;;;2.70;99.90;;;;;;4898178;29;20128;-64
2023/03/08 09:24:51;;;;;;;9.45;5.15;;;2.80;99.90;;;;;;4898065;29;20021;-63
2023/03/08 09:27:17;;;;;;;7.65;6.50;;;5.00;99.90;;;;;;4898909;29;20040;-63
2023/03/08 09:29:42;;;;;;;7.40;6.60;;;-0.20;99.90;;;;;;4884903;29;20514;-61
2023/03/08 09:32:08;;;;;;;6.55;5.95;;;3.20;99.90;;;;;;4898259;29;20029;-62
2023/03/08 09:34:34;;;;;;;9.40;6.00;;;3.30;99.90;;;;;;4897501;29;20029;-62
2023/03/08 09:36:59;;;;;;;8.15;6.32;;;3.50;99.90;;;;;;4897506;29;20427;-64
2023/03/08 09:39:26;;;;;;;7.57;6.07;;;3.70;99.90;;;;;;4897338;29;20487;-62
2023/03/08 09:41:57;;;;;;;6.95;6.35;;;4.00;99.90;;;;;;4897793;29;20025;-63
2023/03/08 09:44:44;;;;;;;10.02;6.50;;;3.80;99.90;;;;;;4896144;29;20506;-59
2023/03/08 09:47:21;;;;;;;6.55;4.80;;;4.10;99.90;;;;;;4880675;29;20037;-61
2023/03/08 09:49:52;;;;;;;10.55;5.47;;;4.40;99.90;;;;;;4890113;29;20033;-62
2023/03/08 09:52:56;;;;;;;6.50;5.15;;;4.30;99.90;;;;;;4879223;29;20568;-62
2023/03/08 09:55:30;;;;;;;6.35;4.53;;;4.50;99.90;;;;;;4883096;29;20028;-62
2023/03/08 09:57:59;;;;;;;;;;;4.50;99.90;;;;;;4898503;29;20036;-62
2023/03/08 10:00:34;;;;;;;12.43;5.07;;;4.70;99.90;;;;;;4897078;29;19912;-62
2023/03/08 10:03:35;;;;;;;6.85;4.72;;;4.80;99.90;;;;;;4897470;29;20021;-61
2023/03/08 10:06:29;;;;;;;6.20;5.60;;;5.00;99.90;;;;;;4879215;29;20036;-63
2023/03/08 10:09:00;;;;;;;6.63;4.63;;;5.20;99.90;;;;;;4897017;29;20455;-62
2023/03/08 10:11:29;;;;;;;6.75;5.65;;;5.00;99.90;;;;;;4888289;29;20044;-64
2023/03/08 10:13:59;;;;;;;6.90;6.20;;;5.20;99.90;;;;;;4897152;29;20024;-62
2023/03/08 10:16:28;;;;;;;6.75;4.40;;;5.30;99.90;;;;;;4897530;29;20471;-63
2023/03/08 10:18:53;;;;;;;6.80;4.43;;;5.30;99.90;;;;;;4896764;29;20031;-63
2023/03/08 10:21:21;;;;;;;4.82;4.30;;;4.90;99.90;;;;;;4896894;29;20438;-61
2023/03/08 10:23:56;;;;;;;5.68;4.45;;;5.50;99.90;;;;;;4897227;29;20080;-61
2023/03/08 10:26:24;;;;;;;6.97;4.65;;;5.50;99.90;;;;;;4880296;29;20020;-62
2023/03/08 10:28:50;;;;;;;4.60;4.10;;;5.50;99.90;;;;;;4897082;29;20099;-62
2023/03/08 10:31:21;;;;;;;4.82;4.00;;;5.30;99.90;;;;;;4878357;29;20129;-62
2023/03/08 10:33:49;;;;;;;7.55;3.88;;;5.00;99.90;;;;;;4877552;29;20029;-62
2023/03/08 10:36:23;;;;;;;6.05;4.40;;;7.30;99.90;;;;;;4877743;29;20108;-63
2023/03/08 10:38:59;;;;;;;7.32;4.35;;;5.20;99.90;;;;;;4877771;29;20070;-64
2023/03/08 10:41:27;;;;;;;5.65;4.35;;;5.20;99.90;;;;;;4877678;29;20397;-64
2023/03/08 10:43:55;;;;;;;11.82;5.43;;;5.20;99.90;;;;;;4877387;29;20029;-61
2023/03/08 10:46:23;;;;;;;4.70;4.20;;;5.20;99.90;;;;;;4877817;29;20033;-62
2023/03/08 10:48:49;;;;;;;7.15;3.88;;;5.50;99.90;;;;;;4877845;29;20033;-62
2023/03/08 10:51:26;;;;;;;4.10;3.33;;;5.50;99.90;;;;;;4886234;29;20021;-60
2023/03/08 10:54:04;;;;;;;5.45;4.15;;;5.60;99.90;;;;;;4893856;29;20060;-58
2023/03/08 10:56:35;;;;;;;9.25;3.78;;;5.80;99.90;;;;;;4877397;29;20112;-61
2023/03/08 10:59:03;;;;;;;9.77;3.60;;;5.90;99.90;;;;;;4877346;29;20021;-64
2023/03/08 11:01:32;;;;;;;14.63;4.25;;;6.00;99.90;;;;;;4877650;29;20400;-59
2023/03/08 11:04:12;;;;;;;8.30;4.43;;;6.00;99.90;;;;;;4877166;29;20040;-63
2023/03/08 11:06:38;;;;;;;3.88;2.70;;;6.20;99.90;;;;;;4894115;29;20111;-61
2023/03/08 11:09:19;;;;;;;10.43;3.28;;;3.40;99.90;;;;;;4894804;29;20176;-63
2023/03/08 11:11:44;;;;;;;5.05;2.83;;;6.20;99.90;;;;;;4891690;29;20499;-58
2023/03/08 11:14:11;;;;;;;3.67;2.67;;;6.20;99.90;;;;;;4892642;29;20029;-60
2023/03/08 11:16:58;;;;;;;4.95;3.20;;;6.10;99.90;;;;;;4895932;29;20028;-62
2023/03/08 11:19:42;;;;;;;2.53;2.15;;;6.20;99.90;;;;;;4895934;29;20036;-59
2023/03/08 11:22:27;;;;;;;6.07;2.50;;;6.20;99.90;;;;;;4896300;29;20025;-60
2023/03/08 11:25:07;;;;;;;;;;;6.30;99.90;;;;;;4878042;29;20127;-62
2023/03/08 11:27:42;;;;;;;6.03;2.80;;;6.40;99.90;;;;;;4878121;29;19915;-59
2023/03/08 11:30:19;;;;;;;20.95;2.97;;;6.50;99.90;;;;;;4878361;29;20499;-60
2023/03/08 11:33:11;;;;;;;6.88;3.08;;;6.60;99.90;;;;;;4879852;29;20041;-61
2023/03/08 11:35:46;;;;;;;2.85;1.98;;;6.80;99.90;;;;;;4895980;29;20036;-64
2023/03/08 11:38:30;;;;;;;5.78;1.73;;;6.80;99.90;;;;;;4896053;29;20036;-61
2023/03/08 11:41:16;;;;;;;4.13;1.98;;;6.70;99.90;;;;;;4878589;29;20176;-57
2023/03/08 11:44:08;;;;;;;3.92;1.85;;;6.50;99.90;;;;;;4885877;29;20036;-59
2023/03/08 11:47:15;;;;;;;2.35;2.13;;;6.50;99.90;;;;;;4876985;29;20033;-61
2023/03/08 11:49:49;;;;;;;5.47;2.28;;;6.40;99.90;;;;;;4851529;29;20037;-59
2023/03/08 11:52:42;;;;;;;3.33;2.30;;;6.50;99.90;;;;;;4877208;29;20208;-59
2023/03/08 11:55:40;;;;;;;2.97;2.08;;;6.60;99.90;;;;;;4876839;29;20097;-59
2023/03/08 11:58:08;;;;;;;5.10;2.67;;;6.70;99.90;;;;;;4860079;29;20102;-55
2023/03/08 12:00:38;;;;;;;2.65;2.25;;;6.60;99.90;;;;;;4895747;29;20064;-57
2023/03/08 12:03:15;;;;;;;3.50;2.50;;;6.50;99.90;;;;;;4894822;29;20507;-60
2023/03/08 12:05:47;;;;;;;3.20;1.98;;;6.40;99.90;;;;;;4895552;29;20036;-61
2023/03/08 12:08:15;;;;;;;3.22;2.58;;;6.20;99.90;;;;;;4898756;29;20395;-62
2023/03/08 12:10:53;;;;;;;5.47;2.78;;;6.10;99.90;;;;;;4899007;29;20036;-59
2023/03/08 12:13:28;;;;;;;8.40;2.90;;;6.10;99.90;;;;;;4897357;29;20080;-61
2023/03/08 12:15:57;;;;;;;9.27;4.03;;;5.90;99.90;;;;;;4898695;29;20024;-59
2023/03/08 12:18:41;;;;;;;4.38;2.60;;;6.00;99.90;;;;;;4898399;29;20463;-61
2023/03/08 12:21:16;;;;;;;4.63;2.30;;;6.00;99.90;;;;;;4898995;29;20033;-62
2023/03/08 12:24:02;;;;;;;2.55;2.05;;;6.20;99.90;;;;;;4890276;29;20456;-57
2023/03/08 12:26:36;;;;;;;4.43;2.25;;;6.50;99.90;;;;;;4879911;29;20085;-54
2023/03/08 12:29:10;;;;;;;7.88;1.85;;;6.70;99.90;;;;;;4879612;29;20108;-62
2023/03/08 12:31:48;;;;;;;4.80;2.33;;;6.80;99.90;;;;;;4872466;29;20032;-60
2023/03/08 12:34:26;;;;;;;7.10;2.25;;;6.80;99.90;;;;;;4897386;29;20276;-63
2023/03/08 12:36:52;;;;;;;6.28;2.63;;;6.60;99.90;;;;;;4898131;29;20040;-62
2023/03/08 12:39:28;;;;;;;7.55;3.00;;;6.50;99.90;;;;;;4898870;29;20021;-59
2023/03/08 12:42:10;;;;;;;9.43;3.78;;;6.30;99.90;;;;;;4898650;29;20025;-60
2023/03/08 12:44:37;;;;;;;4.25;2.38;;;6.30;99.90;;;;;;4897423;29;20096;-58
2023/03/08 12:47:12;;;;;;;6.20;2.22;;;6.20;99.90;;;;;;4898308;29;20415;-60
2023/03/08 12:49:43;;;;;;;3.95;2.42;;;6.10;99.90;;;;;;4897926;29;20021;-59
2023/03/08 12:52:17;;;;;;;3.22;2.60;;;6.00;99.90;;;;;;4897375;29;20436;-58
2023/03/08 12:54:56;;;;;;;5.35;3.17;;;6.10;99.90;;;;;;4882104;29;20158;-60
2023/03/08 12:57:27;;;;;;;4.28;3.15;;;6.10;99.90;;;;;;4879359;29;20444;-59
2023/03/08 13:00:35;;;;;;;5.45;2.78;;;6.30;99.90;;;;;;4878372;29;20025;-64